Skip Navigation LinksHome page > Weather > Current weather Skip Navigation Links

Current Weather

General Edward Lawrence Logan Intl, Boston

For information only: do not use for flight planning or navigation.
Latest weather
Observation time Thursday, November 21, 2019 1:54 PM EST
Local time Thursday, November 21, 2019 2:59 PM EST
Flight conditions Visual Meteorological Conditions
Winds
Wind direction West-Southwest (250°)
Wind speed 6 mph
Visibility 10 mi.
Sky condition
Ceiling unlimited
Cloud layer few clouds 5,000 ft.
Temperature 51°F
Dewpoint 31°F
Altimeter 30.07 in.Hg
Derived measurements
Relative humidity 46%
Density altitude -586 ft.
Sea-level pressure 30.06 in.Hg
Remarks
System requires maintenance.
Automated weather observing station with precipitation discriminator.
METAR KBOS 211854Z 25005KT 10SM FEW050 11/M01 A3007 RMK AO2 SLP181 T01061006 $

Settings

Location code

InnerDrive.Weather 4.0.6770.0 Release CLR 4.0.30319.42000
Copyright ©2018 Inner Drive Technology. All rights reserved. Portions Copyright ©1986-2018 David Braverman.

Find weather

Site navigation


Skip Navigation Links

Place info

Page info

PayPal - The safer, easier way to pay online!

Return home.

Copyright ©2019 Inner Drive Technology. Purveyors of fine, hand-crafted computer software. Page printed 2019-11-21T19:59:20 UTC.